Parishville, New York
Current Conditions -  °F | °C
As of 10:53 PM on Tuesday 25 Nov 2014 (Local Time) from KMSS Reporting Station
Clear Clear  
Wind Chill: 26°   Ceiling: Unl
Heat Index: 35°   Visibility: 10mi
Dew Point: 24°   Wind: 15mph
Humidity: 64%   Direction: 230°SW
Pressure: 30.12"   Gusts: 23mph
Location:  44.63°N, 74.81°W
Report Text: KMSS 260353Z AUTO 23013G20KT 10SM CLR 02/M04 A3012 RMK AO2 SLP202 T00171044
Loading
Personal Weather Stations






























Interactive Weather Map New forecast layout! Learn more

10-Day Weather Forecast

Advertisements
Track Severe Weather on mobile